Time;durP1;ratioP1;P1;durP2;ratioP2;P2;SDS_P1;SDS_P2;PMS_P1;PMS_P2;Temp;Humidity;BMP_temperature;BMP_pressure;BME280_temperature;BME280_humidity;BME280_pressure;Samples;Min_cycle;Max_cycle;Signal;HPM_P1;HPM_P2
2023/06/25 00:01:00;;;;;;;19.00;17.70;;;14.00;73.60;;;;;;5076515;28;20171;-74
2023/06/25 00:03:26;;;;;;;19.30;18.10;;;13.80;75.40;;;;;;5053718;28;20498;-74
2023/06/25 00:05:52;;;;;;;19.05;17.85;;;13.70;76.10;;;;;;5073200;28;20043;-74
2023/06/25 00:08:17;;;;;;;17.13;15.75;;;13.60;76.60;;;;;;5091199;28;20406;-73
2023/06/25 00:10:43;;;;;;;17.10;15.95;;;13.60;76.90;;;;;;5074299;28;20032;-73
2023/06/25 00:13:09;;;;;;;18.13;16.75;;;13.50;77.10;;;;;;5086949;28;20040;-74
2023/06/25 00:15:34;;;;;;;18.05;16.95;;;13.50;77.00;;;;;;5084541;28;20405;-74
2023/06/25 00:18:00;;;;;;;17.92;16.65;;;13.50;76.60;;;;;;5039932;28;20029;-74
2023/06/25 00:20:26;;;;;;;17.00;15.90;;;13.50;75.40;;;;;;5077898;28;20108;-73
2023/06/25 00:22:52;;;;;;;15.80;14.60;;;13.50;76.40;;;;;;5057203;28;20071;-74
2023/06/25 00:25:18;;;;;;;15.63;14.40;;;13.50;75.40;;;;;;5076972;28;20021;-74
2023/06/25 00:27:48;;;;;;;15.38;14.23;;;13.40;76.30;;;;;;5084233;28;20032;-74
2023/06/25 00:30:17;;;;;;;14.13;13.23;;;13.40;76.70;;;;;;5071206;28;20055;-74
2023/06/25 00:32:44;;;;;;;15.00;13.80;;;13.40;76.30;;;;;;5076778;28;20094;-73
2023/06/25 00:35:10;;;;;;;13.82;12.93;;;13.40;75.50;;;;;;5072734;28;20036;-74
2023/06/25 00:37:38;;;;;;;14.07;12.98;;;13.30;77.50;;;;;;5074909;28;20039;-73
2023/06/25 00:40:05;;;;;;;15.13;13.93;;;13.20;78.10;;;;;;5074843;28;20025;-73
2023/06/25 00:42:41;;;;;;;15.32;13.90;;;13.20;78.60;;;;;;5052820;28;20463;-73
2023/06/25 00:45:11;;;;;;;14.23;13.10;;;13.30;77.20;;;;;;5077383;28;20028;-73
2023/06/25 00:47:42;;;;;;;14.75;13.45;;;13.40;77.50;;;;;;5072333;28;20714;-74
2023/06/25 00:50:12;;;;;;;16.48;13.77;;;13.80;75.20;;;;;;5072505;28;20510;-73
2023/06/25 00:52:39;;;;;;;14.38;13.18;;;14.00;74.20;;;;;;5078790;28;20490;-73
2023/06/25 00:55:08;;;;;;;14.93;13.55;;;13.80;74.60;;;;;;5087528;28;20029;-74
2023/06/25 00:57:35;;;;;;;14.52;13.32;;;13.80;75.20;;;;;;5076999;28;20436;-73
2023/06/25 01:00:03;;;;;;;15.88;14.50;;;13.80;75.50;;;;;;5072572;28;20028;-73
2023/06/25 01:03:24;;;;;;;14.68;13.40;;;13.90;75.80;;;;;;5054434;28;20082;-74
2023/06/25 01:06:20;;;;;;;14.48;13.27;;;13.70;75.90;;;;;;5041379;28;20032;-73
2023/06/25 01:08:50;;;;;;;14.10;12.70;;;13.60;76.80;;;;;;5077193;28;20040;-73
2023/06/25 01:11:17;;;;;;;13.77;12.57;;;13.50;76.00;;;;;;5074600;28;20029;-73
2023/06/25 01:13:43;;;;;;;15.20;13.85;;;13.60;76.20;;;;;;5071523;28;20106;-73
2023/06/25 01:16:08;;;;;;;15.52;14.25;;;13.60;75.90;;;;;;5073688;28;20032;-73
2023/06/25 01:18:39;;;;;;;15.05;13.85;;;13.70;76.20;;;;;;5071002;28;20043;-73
2023/06/25 01:21:07;;;;;;;16.13;14.48;;;13.80;75.70;;;;;;5076173;28;20036;-73
2023/06/25 01:23:37;;;;;;;15.27;14.07;;;13.80;76.20;;;;;;5085313;28;20426;-74
2023/06/25 01:26:03;;;;;;;16.90;15.50;;;13.80;76.10;;;;;;5075113;28;20063;-74
2023/06/25 01:28:29;;;;;;;17.27;15.57;;;13.90;76.40;;;;;;5071925;28;20449;-73
2023/06/25 01:30:56;;;;;;;17.60;15.82;;;13.80;76.60;;;;;;5069942;28;20667;-74
2023/06/25 01:33:25;;;;;;;17.10;15.57;;;13.90;77.00;;;;;;5070136;28;20486;-74
2023/06/25 01:35:54;;;;;;;17.35;15.77;;;13.70;77.40;;;;;;5068148;28;20039;-74
2023/06/25 01:38:20;;;;;;;17.05;15.43;;;13.80;77.90;;;;;;5069888;28;20028;-74
2023/06/25 01:40:45;;;;;;;16.10;14.60;;;13.80;76.70;;;;;;5072767;28;20041;-74
2023/06/25 01:43:11;;;;;;;16.10;14.73;;;13.70;76.70;;;;;;5073050;28;20036;-74
2023/06/25 01:45:37;;;;;;;17.63;16.02;;;13.60;78.10;;;;;;5083044;28;20046;-74
2023/06/25 01:48:03;;;;;;;16.13;14.73;;;13.60;79.00;;;;;;5070348;28;20091;-74
2023/06/25 01:50:28;;;;;;;17.10;15.55;;;13.50;78.60;;;;;;5075782;28;20033;-74
2023/06/25 01:52:54;;;;;;;17.23;15.63;;;13.40;80.40;;;;;;5071744;28;20028;-74
2023/06/25 01:55:19;;;;;;;17.40;15.85;;;13.30;80.20;;;;;;5070150;28;20530;-74
2023/06/25 01:57:45;;;;;;;18.00;16.00;;;13.40;80.30;;;;;;5071650;28;20049;-74
2023/06/25 02:00:12;;;;;;;18.33;16.73;;;13.40;80.70;;;;;;5070924;28;20066;-74
2023/06/25 02:02:37;;;;;;;17.27;15.77;;;13.50;80.40;;;;;;5073365;28;20774;-74
2023/06/25 02:05:04;;;;;;;19.25;17.35;;;13.40;81.30;;;;;;5071488;28;20024;-74
2023/06/25 02:07:29;;;;;;;18.80;17.13;;;13.40;81.60;;;;;;5083705;28;20036;-74
2023/06/25 02:09:55;;;;;;;18.00;16.40;;;13.40;82.00;;;;;;5057445;28;20533;-74
2023/06/25 02:12:21;;;;;;;20.38;18.48;;;13.40;82.50;;;;;;5070576;28;20016;-74
2023/06/25 02:14:46;;;;;;;21.00;18.25;;;13.40;82.90;;;;;;5081605;28;20043;-75
2023/06/25 02:17:12;;;;;;;20.40;18.52;;;13.30;84.00;;;;;;5071763;28;20398;-74
2023/06/25 02:19:37;;;;;;;20.02;18.33;;;13.40;84.00;;;;;;5070549;28;20082;-74
2023/06/25 02:22:03;;;;;;;21.70;19.63;;;13.40;84.10;;;;;;5069862;28;20459;-74
2023/06/25 02:24:29;;;;;;;19.90;18.20;;;13.40;84.40;;;;;;5069037;28;20024;-74
2023/06/25 02:26:55;;;;;;;21.23;19.23;;;13.50;84.40;;;;;;5070612;28;20083;-73
2023/06/25 02:29:21;;;;;;;20.13;18.13;;;13.50;84.50;;;;;;5071235;28;20498;-75
2023/06/25 02:31:46;;;;;;;20.77;18.88;;;13.40;84.60;;;;;;5071573;28;20082;-75
2023/06/25 02:34:12;;;;;;;19.60;17.80;;;13.40;85.50;;;;;;5074389;28;20067;-72
2023/06/25 02:36:37;;;;;;;21.80;19.83;;;13.30;84.80;;;;;;5071067;28;20082;-72
2023/06/25 02:39:03;;;;;;;20.70;18.98;;;13.20;85.00;;;;;;5069150;28;20025;-72
2023/06/25 02:41:29;;;;;;;20.55;18.63;;;13.30;86.00;;;;;;5072457;28;20033;-72
2023/06/25 02:43:54;;;;;;;20.90;18.90;;;13.30;86.10;;;;;;5070256;28;20509;-72
2023/06/25 02:46:20;;;;;;;21.73;19.63;;;13.30;86.50;;;;;;5069307;28;20036;-72
2023/06/25 02:48:46;;;;;;;21.88;20.05;;;13.30;86.80;;;;;;5072988;28;20029;-72
2023/06/25 02:51:12;;;;;;;20.45;18.67;;;13.30;87.20;;;;;;5070677;28;20040;-72
2023/06/25 02:53:37;;;;;;;22.17;20.10;;;13.30;87.30;;;;;;5071515;28;20032;-72
2023/06/25 02:56:03;;;;;;;22.00;20.13;;;13.30;87.50;;;;;;5069877;28;20127;-72
2023/06/25 02:58:29;;;;;;;21.10;18.95;;;13.20;87.60;;;;;;5069649;28;20040;-72
2023/06/25 03:00:55;;;;;;;22.90;20.67;;;13.30;87.80;;;;;;5069246;28;20115;-73
2023/06/25 03:03:20;;;;;;;21.40;19.48;;;13.30;87.50;;;;;;5069103;28;20025;-72
2023/06/25 03:05:46;;;;;;;21.15;19.45;;;13.30;88.00;;;;;;5076210;28;20036;-73
2023/06/25 03:08:11;;;;;;;23.13;20.83;;;13.30;88.20;;;;;;5059759;28;20058;-72
2023/06/25 03:10:38;;;;;;;23.45;21.30;;;13.30;88.30;;;;;;5084843;28;20028;-72
2023/06/25 03:13:04;;;;;;;23.45;21.40;;;13.20;89.10;;;;;;5068615;28;20040;-72
2023/06/25 03:15:30;;;;;;;23.85;21.67;;;13.30;89.10;;;;;;5066019;28;20029;-73
2023/06/25 03:17:56;;;;;;;23.73;21.77;;;13.30;89.00;;;;;;5068996;28;20032;-72
2023/06/25 03:20:21;;;;;;;24.52;22.48;;;13.30;89.40;;;;;;5071463;28;20037;-72
2023/06/25 03:22:48;;;;;;;22.52;20.63;;;13.30;89.40;;;;;;5071324;28;20045;-72
2023/06/25 03:25:13;;;;;;;24.15;21.75;;;13.30;88.60;;;;;;5069515;28;20056;-72
2023/06/25 03:27:40;;;;;;;22.75;20.63;;;13.20;90.10;;;;;;5072286;28;20092;-72
2023/06/25 03:30:06;;;;;;;24.20;21.92;;;13.30;89.70;;;;;;5068766;28;20044;-73
2023/06/25 03:32:32;;;;;;;24.35;22.13;;;13.20;90.10;;;;;;5070296;28;20059;-73
2023/06/25 03:34:59;;;;;;;24.00;21.75;;;13.20;90.00;;;;;;5073417;28;20085;-73
2023/06/25 03:37:25;;;;;;;24.10;21.85;;;13.20;90.10;;;;;;5084514;28;20028;-72
2023/06/25 03:39:50;;;;;;;24.67;22.55;;;13.10;90.20;;;;;;5069457;28;20085;-72
2023/06/25 03:42:16;;;;;;;22.48;20.58;;;13.10;90.30;;;;;;5072126;28;20082;-73
2023/06/25 03:44:49;;;;;;;23.95;21.80;;;13.20;90.00;;;;;;5071167;28;20033;-73
2023/06/25 03:47:15;;;;;;;22.70;20.83;;;13.20;90.30;;;;;;5068866;28;20040;-72
2023/06/25 03:49:43;;;;;;;22.65;20.65;;;13.10;90.50;;;;;;5083731;28;20037;-72
2023/06/25 03:52:08;;;;;;;22.20;20.27;;;13.10;90.50;;;;;;5070581;28;20067;-73
2023/06/25 03:54:34;;;;;;;23.98;21.75;;;13.20;90.70;;;;;;5072031;28;20483;-72
2023/06/25 03:57:00;;;;;;;24.70;22.60;;;13.20;90.70;;;;;;5071287;28;20040;-73
2023/06/25 03:59:25;;;;;;;25.23;23.38;;;13.20;90.60;;;;;;5059880;28;20650;-72
2023/06/25 04:01:51;;;;;;;23.42;21.50;;;13.30;90.50;;;;;;5069888;28;20114;-73
2023/06/25 04:04:16;;;;;;;23.48;21.42;;;13.40;90.40;;;;;;5069657;28;20111;-72
2023/06/25 04:06:42;;;;;;;23.10;21.23;;;13.50;90.10;;;;;;5072781;28;20126;-75
2023/06/25 04:09:08;;;;;;;24.30;22.17;;;13.50;90.00;;;;;;5087158;28;20118;-72
2023/06/25 04:11:33;;;;;;;23.58;21.35;;;13.60;89.80;;;;;;5071939;28;20057;-74
2023/06/25 04:13:59;;;;;;;23.75;21.83;;;13.60;89.50;;;;;;5073602;28;20114;-72
2023/06/25 04:16:25;;;;;;;23.45;21.52;;;13.60;89.60;;;;;;5076666;28;20040;-72
2023/06/25 04:18:50;;;;;;;25.42;22.98;;;13.60;90.00;;;;;;5077329;28;20036;-72
2023/06/25 04:21:16;;;;;;;22.95;21.08;;;13.60;89.80;;;;;;5076107;28;20031;-72
2023/06/25 04:23:41;;;;;;;23.30;21.02;;;13.80;88.70;;;;;;5081923;28;20051;-72
2023/06/25 04:26:07;;;;;;;22.58;20.55;;;13.80;88.10;;;;;;5081399;28;20394;-72
2023/06/25 04:28:33;;;;;;;22.90;20.85;;;13.90;88.20;;;;;;5076231;28;20554;-72
2023/06/25 04:30:58;;;;;;;23.33;20.88;;;13.90;88.30;;;;;;5077022;28;20505;-72
2023/06/25 04:33:24;;;;;;;23.08;21.05;;;14.00;87.30;;;;;;5078649;28;20039;-72
2023/06/25 04:35:49;;;;;;;22.40;20.45;;;14.00;88.10;;;;;;5076615;28;20036;-72
2023/06/25 04:38:15;;;;;;;22.30;20.30;;;14.10;87.10;;;;;;5077530;28;20035;-73
2023/06/25 04:40:41;;;;;;;24.55;21.70;;;14.10;86.70;;;;;;5077029;28;20024;-73
2023/06/25 04:43:06;;;;;;;21.23;19.27;;;14.10;87.20;;;;;;5076570;28;20039;-72
2023/06/25 04:45:32;;;;;;;22.27;20.20;;;14.20;86.80;;;;;;5074696;28;20032;-72
2023/06/25 04:47:58;;;;;;;22.15;20.15;;;14.30;86.50;;;;;;5076375;28;20025;-72
2023/06/25 04:50:23;;;;;;;22.25;20.33;;;14.40;85.30;;;;;;5077125;28;20038;-72
2023/06/25 04:52:49;;;;;;;22.75;20.95;;;14.50;84.70;;;;;;5057070;28;20037;-72
2023/06/25 04:55:15;;;;;;;21.15;19.20;;;14.50;84.50;;;;;;5076125;28;20046;-72
2023/06/25 04:57:40;;;;;;;22.40;20.52;;;14.60;85.00;;;;;;5078207;28;20074;-72
2023/06/25 05:00:06;;;;;;;21.48;19.73;;;14.60;85.40;;;;;;5074399;28;20043;-72
2023/06/25 05:02:32;;;;;;;21.55;19.42;;;14.70;85.80;;;;;;5073430;28;20033;-72
2023/06/25 05:04:58;;;;;;;22.13;19.85;;;14.70;83.80;;;;;;5075248;28;20078;-72
2023/06/25 05:07:23;;;;;;;22.45;20.55;;;14.70;83.60;;;;;;5072643;28;20040;-72
2023/06/25 05:09:49;;;;;;;22.58;20.58;;;14.70;84.30;;;;;;5077551;28;20025;-72
2023/06/25 05:12:15;;;;;;;21.02;18.92;;;14.70;84.10;;;;;;5074598;28;20036;-73
2023/06/25 05:14:42;;;;;;;21.60;19.73;;;14.80;83.30;;;;;;5067460;28;20079;-72
2023/06/25 05:17:07;;;;;;;21.88;19.98;;;14.80;84.10;;;;;;5078594;28;20036;-72
2023/06/25 05:19:33;;;;;;;21.40;19.23;;;14.90;82.10;;;;;;5072598;28;20032;-72
2023/06/25 05:21:59;;;;;;;21.50;19.50;;;15.00;82.20;;;;;;5089314;28;20825;-72
2023/06/25 05:24:24;;;;;;;20.65;18.80;;;15.10;81.50;;;;;;5073968;28;20527;-72
2023/06/25 05:26:50;;;;;;;20.98;19.23;;;15.20;81.90;;;;;;5074893;28;20047;-73
2023/06/25 05:29:16;;;;;;;21.52;19.52;;;15.30;81.20;;;;;;5076179;28;20040;-72
2023/06/25 05:31:41;;;;;;;21.42;19.52;;;15.30;81.50;;;;;;5072805;28;20044;-72
2023/06/25 05:34:07;;;;;;;22.10;19.95;;;15.30;80.40;;;;;;5057176;28;20032;-72
2023/06/25 05:36:32;;;;;;;22.60;20.40;;;15.30;81.00;;;;;;5076427;28;20045;-73
2023/06/25 05:38:58;;;;;;;22.58;20.52;;;15.40;81.60;;;;;;5075740;28;20033;-73
2023/06/25 05:41:24;;;;;;;21.20;19.27;;;15.60;81.20;;;;;;5075434;28;20054;-73
2023/06/25 05:43:49;;;;;;;19.90;18.10;;;15.70;80.00;;;;;;5079529;28;20462;-73
2023/06/25 05:46:15;;;;;;;21.35;19.55;;;15.70;78.80;;;;;;5076549;28;20119;-72
2023/06/25 05:48:41;;;;;;;22.35;20.50;;;15.80;78.90;;;;;;5075666;28;20428;-73
2023/06/25 05:51:07;;;;;;;22.27;20.25;;;15.80;79.20;;;;;;5076846;28;20059;-73
2023/06/25 05:53:43;;;;;;;22.00;20.02;;;15.90;78.50;;;;;;5073516;28;20021;-74
2023/06/25 05:56:09;;;;;;;21.50;19.63;;;15.90;79.60;;;;;;5078149;28;20064;-72
2023/06/25 05:58:36;;;;;;;21.38;19.58;;;16.00;78.20;;;;;;5074005;28;20020;-74
2023/06/25 06:01:02;;;;;;;22.67;20.88;;;16.10;78.00;;;;;;5079461;28;20040;-74
2023/06/25 06:03:28;;;;;;;22.77;20.70;;;16.20;76.80;;;;;;5080975;28;20138;-74
2023/06/25 06:05:56;;;;;;;24.50;22.33;;;16.30;77.40;;;;;;5074100;28;20064;-74
2023/06/25 06:08:22;;;;;;;23.65;21.58;;;16.40;76.30;;;;;;5074345;28;20036;-74
2023/06/25 06:10:48;;;;;;;24.25;22.05;;;16.40;77.30;;;;;;5072730;28;20043;-74
2023/06/25 06:13:14;;;;;;;22.00;20.20;;;16.40;75.70;;;;;;5074914;28;20430;-74
2023/06/25 06:15:40;;;;;;;23.08;21.02;;;16.50;76.20;;;;;;5074809;28;20106;-74
2023/06/25 06:18:06;;;;;;;20.48;18.42;;;16.70;75.40;;;;;;5077042;28;20032;-74
2023/06/25 06:20:31;;;;;;;21.42;19.70;;;16.80;74.70;;;;;;5075273;28;20033;-74
2023/06/25 06:22:58;;;;;;;22.88;20.85;;;17.00;74.90;;;;;;5078179;28;20060;-74
2023/06/25 06:25:25;;;;;;;22.73;20.75;;;17.10;73.30;;;;;;5069544;28;20033;-74
2023/06/25 06:27:52;;;;;;;21.50;19.67;;;17.10;73.80;;;;;;5076198;28;20056;-73
2023/06/25 06:30:18;;;;;;;20.00;18.13;;;17.10;73.50;;;;;;5070620;28;20059;-74
2023/06/25 06:32:43;;;;;;;20.88;18.92;;;17.30;72.70;;;;;;5075985;28;20467;-74
2023/06/25 06:35:10;;;;;;;20.48;18.70;;;17.30;72.40;;;;;;5073888;28;20032;-74
2023/06/25 06:37:35;;;;;;;22.33;20.35;;;17.50;73.60;;;;;;5071396;28;20027;-74
2023/06/25 06:40:01;;;;;;;20.73;19.02;;;17.50;73.00;;;;;;5072486;28;20030;-72
2023/06/25 06:42:27;;;;;;;20.80;19.10;;;17.70;72.40;;;;;;5073434;28;20505;-73
2023/06/25 06:44:52;;;;;;;18.02;16.58;;;17.70;70.90;;;;;;5073870;28;20040;-73
2023/06/25 06:47:18;;;;;;;19.85;17.90;;;17.80;71.10;;;;;;5071495;28;20032;-73
2023/06/25 06:49:44;;;;;;;19.45;17.77;;;18.00;71.50;;;;;;5076742;28;20112;-73
2023/06/25 06:52:09;;;;;;;19.30;17.73;;;18.10;70.10;;;;;;5071099;28;20039;-73
2023/06/25 06:54:35;;;;;;;19.65;18.05;;;18.30;71.10;;;;;;5070952;28;20040;-73
2023/06/25 06:57:01;;;;;;;19.75;18.00;;;18.40;67.60;;;;;;5072725;28;20042;-72
2023/06/25 06:59:26;;;;;;;18.45;16.88;;;18.60;68.80;;;;;;5074244;28;20028;-72
2023/06/25 07:01:52;;;;;;;21.75;20.15;;;18.70;66.10;;;;;;5070732;28;20029;-72
2023/06/25 07:04:18;;;;;;;22.30;20.25;;;18.80;67.80;;;;;;5069015;28;20041;-72
2023/06/25 07:06:43;;;;;;;20.55;18.92;;;18.80;68.40;;;;;;5065922;28;20039;-72
2023/06/25 07:09:09;;;;;;;19.33;17.63;;;19.10;67.60;;;;;;5051146;28;20046;-73
2023/06/25 07:11:35;;;;;;;18.20;16.63;;;19.10;66.30;;;;;;5070403;28;20035;-75
2023/06/25 07:14:00;;;;;;;18.25;16.55;;;19.30;65.00;;;;;;5056181;28;20029;-75
2023/06/25 07:16:26;;;;;;;17.85;16.38;;;19.30;64.40;;;;;;5071179;28;20437;-74
2023/06/25 07:18:52;;;;;;;18.48;17.13;;;19.50;64.50;;;;;;5054020;28;20079;-75
2023/06/25 07:21:17;;;;;;;19.08;17.67;;;19.70;63.50;;;;;;5057303;28;20035;-76
2023/06/25 07:23:43;;;;;;;28.25;26.55;;;19.80;62.80;;;;;;5069151;28;20048;-74
2023/06/25 07:26:09;;;;;;;33.03;31.15;;;19.70;61.50;;;;;;5058350;28;20055;-75
2023/06/25 07:28:34;;;;;;;22.02;20.30;;;19.60;62.30;;;;;;5076307;28;20047;-74
2023/06/25 07:31:00;;;;;;;30.75;28.88;;;20.00;64.00;;;;;;5072699;28;20047;-75
2023/06/25 07:33:26;;;;;;;37.60;35.30;;;20.20;62.30;;;;;;5055093;28;20044;-74
2023/06/25 07:35:51;;;;;;;35.97;34.03;;;20.40;61.80;;;;;;5072986;28;20127;-73
2023/06/25 07:38:17;;;;;;;33.75;31.70;;;20.50;58.80;;;;;;5053621;28;20379;-73
2023/06/25 07:40:43;;;;;;;34.38;32.40;;;20.60;60.90;;;;;;5076306;28;20024;-72
2023/06/25 07:43:08;;;;;;;34.75;32.75;;;20.90;60.40;;;;;;5093347;28;20115;-72
2023/06/25 07:45:34;;;;;;;38.72;36.33;;;21.00;60.80;;;;;;5073738;28;20032;-72
2023/06/25 07:47:59;;;;;;;30.02;28.23;;;21.30;59.60;;;;;;5079011;28;20128;-72
2023/06/25 07:50:25;;;;;;;25.23;23.73;;;21.50;57.90;;;;;;5074163;28;20036;-72
2023/06/25 07:52:51;;;;;;;28.75;27.15;;;21.40;57.30;;;;;;5080541;28;20044;-72
2023/06/25 07:55:17;;;;;;;34.58;32.45;;;21.60;56.00;;;;;;5092649;28;20371;-73
2023/06/25 07:57:42;;;;;;;20.00;18.73;;;21.90;56.50;;;;;;5079937;28;20040;-73
2023/06/25 08:00:10;;;;;;;97.65;93.75;;;21.90;51.80;;;;;;5074406;28;20044;-72
2023/06/25 08:02:36;;;;;;;98.97;95.00;;;22.20;49.10;;;;;;5075492;28;20033;-73
2023/06/25 08:05:01;;;;;;;87.93;84.35;;;22.40;48.50;;;;;;5077553;28;20052;-72
2023/06/25 08:07:27;;;;;;;102.57;98.22;;;22.60;47.30;;;;;;5079883;28;20024;-73
2023/06/25 08:09:53;;;;;;;110.13;105.93;;;22.80;44.50;;;;;;5077005;28;20028;-73
2023/06/25 08:12:18;;;;;;;235.95;227.18;;;22.80;44.40;;;;;;5079578;28;20070;-72
2023/06/25 08:14:45;;;;;;;119.38;114.88;;;22.80;43.60;;;;;;5090774;28;20115;-73
2023/06/25 08:17:11;;;;;;;222.57;213.88;;;23.00;44.40;;;;;;5076731;28;20028;-72
2023/06/25 08:19:37;;;;;;;361.77;347.23;;;23.20;44.10;;;;;;5093725;28;20032;-72
2023/06/25 08:22:02;;;;;;;288.30;277.30;;;23.10;42.00;;;;;;5076279;28;20135;-73
2023/06/25 08:24:28;;;;;;;383.25;368.13;;;23.30;43.20;;;;;;5079108;28;20111;-72
2023/06/25 08:26:54;;;;;;;502.38;478.58;;;23.40;42.30;;;;;;5078215;28;20143;-72
2023/06/25 08:29:20;;;;;;;304.80;293.00;;;23.40;41.40;;;;;;5077513;28;20044;-73
2023/06/25 08:31:46;;;;;;;466.25;446.15;;;23.60;43.70;;;;;;5084092;28;20044;-73
2023/06/25 08:34:11;;;;;;;598.17;568.88;;;23.80;42.50;;;;;;5075325;28;20376;-72
2023/06/25 08:36:37;;;;;;;757.08;714.53;;;24.10;43.00;;;;;;5098167;28;20028;-73
2023/06/25 08:39:03;;;;;;;670.95;635.97;;;24.10;40.00;;;;;;5075532;28;20509;-74
2023/06/25 08:41:28;;;;;;;696.63;660.92;;;24.10;40.80;;;;;;5078370;28;20027;-76
2023/06/25 08:43:54;;;;;;;669.42;634.83;;;24.30;41.00;;;;;;5078074;28;20040;-75
2023/06/25 08:46:23;;;;;;;649.25;616.47;;;24.40;41.00;;;;;;5073006;28;20028;-74
2023/06/25 08:48:53;;;;;;;726.85;687.15;;;24.40;40.50;;;;;;5074048;28;20035;-74
2023/06/25 08:51:24;;;;;;;581.10;547.53;;;24.50;40.50;;;;;;5057683;28;20028;-74
2023/06/25 08:53:51;;;;;;;762.10;719.60;;;24.50;39.10;;;;;;5071169;28;20300;-75
2023/06/25 08:56:17;;;;;;;822.88;554.15;;;24.80;40.00;;;;;;5075480;28;20490;-75
2023/06/25 08:58:44;;;;;;;1999.90;999.90;;;24.90;37.30;;;;;;5090899;28;20475;-76
2023/06/25 09:01:13;;;;;;;1999.90;999.90;;;25.00;38.00;;;;;;5055097;28;20113;-75
2023/06/25 09:03:41;;;;;;;1999.90;999.90;;;25.10;36.40;;;;;;5077489;28;20364;-75
2023/06/25 09:06:16;;;;;;;1999.90;999.90;;;25.20;35.70;;;;;;5054439;28;20033;-75
2023/06/25 09:08:43;;;;;;;1999.90;999.90;;;25.30;37.00;;;;;;5091101;28;20040;-76
2023/06/25 09:11:09;;;;;;;1999.90;999.90;;;25.30;36.20;;;;;;5079891;28;20029;-75
2023/06/25 09:13:37;;;;;;;1999.90;999.90;;;25.30;38.20;;;;;;5072020;28;20032;-75
2023/06/25 09:16:08;;;;;;;1999.90;999.90;;;25.60;36.40;;;;;;5077298;28;20531;-75
2023/06/25 09:18:34;;;;;;;1999.90;999.90;;;25.90;34.90;;;;;;5075380;28;20025;-75
2023/06/25 09:21:07;;;;;;;1999.90;999.90;;;25.50;33.70;;;;;;5072678;28;20028;-75
2023/06/25 09:23:35;;;;;;;1999.90;999.90;;;25.40;33.90;;;;;;5073371;28;20058;-76
2023/06/25 09:26:09;;;;;;;1999.90;999.90;;;25.30;34.10;;;;;;5072272;28;20040;-75
2023/06/25 09:28:46;;;;;;;1999.90;999.90;;;25.20;34.90;;;;;;5072315;28;20056;-75
2023/06/25 09:31:15;;;;;;;1999.90;999.90;;;25.30;34.70;;;;;;5072146;28;20051;-75
2023/06/25 09:33:41;;;;;;;1999.90;999.90;;;25.50;36.00;;;;;;5075371;28;20498;-75
2023/06/25 09:36:07;;;;;;;1999.90;999.90;;;25.80;38.10;;;;;;5091688;28;20036;-75
2023/06/25 09:38:32;;;;;;;1999.90;999.90;;;25.80;35.00;;;;;;5071975;28;20494;-75
2023/06/25 09:40:59;;;;;;;1999.90;999.90;;;25.90;34.50;;;;;;5076733;28;20486;-74
2023/06/25 09:43:26;;;;;;;1999.90;999.90;;;26.20;37.00;;;;;;5076738;28;20046;-75
2023/06/25 09:45:52;;;;;;;1999.90;999.90;;;26.10;33.40;;;;;;5085377;28;20028;-75
2023/06/25 09:48:23;;;;;;;1999.90;999.90;;;25.90;34.20;;;;;;5079665;28;20034;-75
2023/06/25 09:50:50;;;;;;;1999.90;999.90;;;26.10;34.00;;;;;;5075235;28;20032;-76
2023/06/25 09:53:22;;;;;;;1999.90;999.90;;;26.10;33.30;;;;;;5075583;28;20100;-73
2023/06/25 09:55:49;;;;;;;1999.90;999.90;;;26.20;32.70;;;;;;5071960;28;20052;-75
2023/06/25 09:58:17;;;;;;;1999.90;999.90;;;26.50;34.20;;;;;;5053646;28;20509;-75
2023/06/25 10:00:43;;;;;;;1999.90;999.90;;;27.00;36.50;;;;;;5075957;28;20064;-75
2023/06/25 10:03:10;;;;;;;1999.90;999.90;;;27.00;33.00;;;;;;5072685;28;20744;-76
2023/06/25 10:05:37;;;;;;;1999.90;999.90;;;27.10;34.60;;;;;;5072346;28;20052;-76
2023/06/25 10:08:03;;;;;;;1999.90;999.90;;;27.30;32.60;;;;;;5056034;28;20032;-74
2023/06/25 10:10:29;;;;;;;1999.90;999.90;;;27.50;34.40;;;;;;5078177;28;20039;-75
2023/06/25 10:12:55;;;;;;;1999.90;999.90;;;27.10;32.70;;;;;;5074475;28;20036;-75
2023/06/25 10:15:31;;;;;;;1999.90;999.90;;;27.40;30.40;;;;;;5074063;28;20027;-74
2023/06/25 10:17:58;;;;;;;1999.90;999.90;;;27.30;31.00;;;;;;5052764;28;20036;-76
2023/06/25 10:20:35;;;;;;;1999.90;999.90;;;27.20;31.90;;;;;;5076977;28;20039;-75
2023/06/25 10:23:12;;;;;;;1999.90;999.90;;;27.10;31.60;;;;;;5076935;28;20117;-76
2023/06/25 10:25:54;;;;;;;1999.90;999.90;;;27.70;30.30;;;;;;5077235;28;20044;-76
2023/06/25 10:28:31;;;;;;;1999.90;999.90;;;27.90;29.70;;;;;;5072705;28;20059;-77
2023/06/25 10:30:59;;;;;;;1999.90;999.90;;;27.90;31.70;;;;;;5074021;28;20509;-76
2023/06/25 10:33:28;;;;;;;1999.90;999.90;;;27.40;28.60;;;;;;5074857;28;20020;-76
2023/06/25 10:35:58;;;;;;;1999.90;999.90;;;27.70;31.00;;;;;;5074219;28;20036;-77
2023/06/25 10:38:24;;;;;;;1999.90;999.90;;;27.80;29.50;;;;;;5068903;28;20029;-77
2023/06/25 10:40:50;;;;;;;1999.90;999.90;;;28.00;29.10;;;;;;5089365;28;20494;-77
2023/06/25 10:43:20;;;;;;;1999.90;999.90;;;28.00;28.60;;;;;;5069597;28;20498;-77
2023/06/25 10:45:50;;;;;;;1999.90;999.90;;;27.90;29.80;;;;;;5053051;28;20076;-76
2023/06/25 10:48:17;;;;;;;1999.90;999.90;;;28.00;28.30;;;;;;5075191;28;20590;-77
2023/06/25 10:50:43;;;;;;;1999.90;999.90;;;28.20;28.30;;;;;;5073555;28;20020;-76
2023/06/25 10:53:17;;;;;;;1999.90;999.90;;;27.60;28.10;;;;;;5074953;28;20380;-77
2023/06/25 10:55:48;;;;;;;1999.90;999.90;;;27.50;27.80;;;;;;5070424;28;20028;-77
2023/06/25 10:58:24;;;;;;;1999.90;999.90;;;27.80;27.50;;;;;;5046619;28;20032;-77
2023/06/25 11:00:54;;;;;;;1999.90;999.90;;;28.20;27.00;;;;;;5070333;28;21059;-77
2023/06/25 11:03:21;;;;;;;1999.90;999.90;;;28.40;30.00;;;;;;5056208;28;20032;-76
2023/06/25 11:05:47;;;;;;;1999.90;999.90;;;29.30;28.70;;;;;;5054821;28;20506;-76
2023/06/25 11:08:13;;;;;;;1999.90;999.90;;;29.70;27.50;;;;;;5072548;28;20044;-76
2023/06/25 11:10:40;;;;;;;1999.90;999.90;;;29.50;26.50;;;;;;5072803;28;20021;-77
2023/06/25 11:13:11;;;;;;;1999.90;999.90;;;30.70;27.20;;;;;;5055281;28;20041;-76
2023/06/25 11:15:36;;;;;;;1999.90;999.90;;;31.80;25.60;;;;;;5069710;28;20037;-76
2023/06/25 11:18:05;;;;;;;1999.90;999.90;;;31.40;23.40;;;;;;5058155;28;20039;-77
2023/06/25 11:20:33;;;;;;;1999.90;999.90;;;30.50;25.70;;;;;;5076548;28;20024;-76
2023/06/25 11:22:59;;;;;;;1999.90;999.90;;;31.60;23.40;;;;;;5076719;28;20051;-76
2023/06/25 11:25:25;;;;;;;1999.90;999.90;;;30.70;24.10;;;;;;5078697;28;20118;-76
2023/06/25 11:28:08;;;;;;;1999.90;999.90;;;30.20;24.60;;;;;;5088074;28;20112;-76
2023/06/25 11:30:34;;;;;;;1999.90;999.90;;;30.90;26.30;;;;;;5075142;28;20029;-76
2023/06/25 11:33:26;;;;;;;1999.90;999.90;;;30.80;24.00;;;;;;5055908;28;20393;-76
2023/06/25 11:35:53;;;;;;;1999.90;999.90;;;30.60;24.00;;;;;;5069906;28;20122;-76
2023/06/25 11:38:28;;;;;;;1999.90;999.90;;;30.80;23.50;;;;;;5073088;28;20020;-76
2023/06/25 11:40:57;;;;;;;1999.90;999.90;;;31.40;22.20;;;;;;5076258;28;20024;-76
2023/06/25 11:43:23;;;;;;;1999.90;999.90;;;32.00;21.90;;;;;;5093374;28;20040;-76
2023/06/25 11:45:49;;;;;;;1999.90;999.90;;;32.00;23.00;;;;;;5050903;28;20025;-76
2023/06/25 11:48:16;;;;;;;1999.90;999.90;;;32.00;22.80;;;;;;5056108;28;20016;-76
2023/06/25 11:50:47;;;;;;;1999.90;999.90;;;32.20;23.10;;;;;;5077487;28;20039;-76
2023/06/25 11:53:14;;;;;;;1999.90;999.90;;;32.30;22.00;;;;;;5075238;28;20040;-76
2023/06/25 11:55:40;;;;;;;1999.90;999.90;;;32.70;21.10;;;;;;5087112;28;20028;-76
2023/06/25 11:58:08;;;;;;;1999.90;999.90;;;33.70;22.00;;;;;;5074885;28;20036;-76
2023/06/25 12:00:33;;;;;;;1999.90;999.90;;;32.20;22.50;;;;;;5073452;28;20029;-76
2023/06/25 12:02:59;;;;;;;1999.90;999.90;;;32.60;22.30;;;;;;5080102;28;20024;-77
2023/06/25 12:05:25;;;;;;;1999.90;999.90;;;32.80;21.10;;;;;;5054022;28;20025;-77
2023/06/25 12:07:50;;;;;;;1999.90;999.90;;;32.60;21.50;;;;;;5070425;28;20029;-77
2023/06/25 12:10:16;;;;;;;1999.90;999.90;;;32.70;21.30;;;;;;5073595;28;20050;-77
2023/06/25 12:12:44;;;;;;;1999.90;999.90;;;33.50;20.50;;;;;;5040438;28;20115;-77
2023/06/25 12:15:09;;;;;;;1999.90;999.90;;;32.80;21.60;;;;;;5078128;28;20039;-77
2023/06/25 12:17:35;;;;;;;1999.90;999.90;;;33.00;20.80;;;;;;5056889;28;20036;-77